Time;durP1;ratioP1;P1;durP2;ratioP2;P2;SDS_P1;SDS_P2;PMS_P1;PMS_P2;Temp;Humidity;BMP_temperature;BMP_pressure;BME280_temperature;BME280_humidity;BME280_pressure;Samples;Min_cycle;Max_cycle;Signal;HPM_P1;HPM_P2
2021/03/02 00:01:55;;;;;;;25.90;15.05;;;;;;;0.68;83.60;96645.59;4873201;29;20131;-73
2021/03/02 00:04:23;;;;;;;32.60;16.77;;;;;;;0.49;84.34;96648.84;4873380;29;20045;-72
2021/03/02 00:06:50;;;;;;;24.20;12.73;;;;;;;0.42;84.94;96660.53;4890105;29;20144;-73
2021/03/02 00:09:17;;;;;;;24.92;13.57;;;;;;;0.26;85.87;96639.63;4873429;29;20044;-73
2021/03/02 00:11:45;;;;;;;30.60;15.15;;;;;;;0.29;85.81;96650.44;4889934;29;20123;-72
2021/03/02 00:14:11;;;;;;;43.15;22.50;;;;;;;0.21;85.30;96621.22;4890273;29;20522;-72
2021/03/02 00:16:43;;;;;;;95.03;30.58;;;;;;;0.42;85.16;96624.63;4889955;29;20101;-72
2021/03/02 00:19:15;;;;;;;75.05;29.50;;;;;;;0.47;84.76;96637.91;4889477;29;20048;-73
2021/03/02 00:21:58;;;;;;;125.10;40.10;;;;;;;0.59;84.03;96625.00;4890385;29;20135;-73
2021/03/02 00:24:36;;;;;;;135.55;41.30;;;;;;;0.65;83.33;96616.81;4889389;29;20131;-73
2021/03/02 00:27:05;;;;;;;81.65;29.95;;;;;;;0.71;83.17;96629.16;4890111;29;20575;-73
2021/03/02 00:29:32;;;;;;;74.63;28.27;;;;;;;0.75;83.53;96635.66;4873309;29;20528;-73
2021/03/02 00:31:59;;;;;;;69.70;28.83;;;;;;;0.77;83.63;96633.78;4889958;29;20175;-74
2021/03/02 00:34:25;;;;;;;66.43;27.48;;;;;;;0.36;84.29;96594.34;4873301;29;20087;-72
2021/03/02 00:36:52;;;;;;;54.38;22.60;;;;;;;0.66;84.37;96641.53;4856831;29;20041;-72
2021/03/02 00:39:19;;;;;;;51.50;22.92;;;;;;;0.63;83.76;96626.38;4890010;29;20412;-72
2021/03/02 00:41:45;;;;;;;52.70;21.65;;;;;;;0.68;83.61;96632.75;4890061;29;20127;-72
2021/03/02 00:44:12;;;;;;;61.05;25.95;;;;;;;0.42;83.78;96599.00;4873359;29;20507;-72
2021/03/02 00:46:38;;;;;;;60.20;25.67;;;;;;;0.65;83.87;96629.63;4893957;29;20120;-73
2021/03/02 00:49:05;;;;;;;48.42;22.50;;;;;;;0.71;83.29;96634.28;4893751;29;20051;-72
2021/03/02 00:51:32;;;;;;;43.15;19.65;;;;;;;0.61;83.79;96623.13;4876801;29;20052;-72
2021/03/02 00:53:59;;;;;;;34.70;16.35;;;;;;;0.30;84.64;96621.28;4877168;29;20056;-73
2021/03/02 00:56:26;;;;;;;36.83;18.17;;;;;;;0.46;84.53;96626.00;4893512;29;20072;-72
2021/03/02 00:58:53;;;;;;;36.53;16.52;;;;;;;0.51;83.91;96623.88;4876529;29;20052;-73
2021/03/02 01:01:19;;;;;;;32.55;16.52;;;;;;;0.43;84.05;96626.25;4892769;29;20045;-72
2021/03/02 01:03:46;;;;;;;32.72;16.70;;;;;;;0.39;84.40;96635.13;4892899;29;20052;-72
2021/03/02 01:06:15;;;;;;;30.90;16.08;;;;;;;0.48;84.27;96624.13;4893113;29;20128;-73
2021/03/02 01:08:42;;;;;;;25.92;14.25;;;;;;;0.53;83.76;96606.63;4876292;29;20060;-72
2021/03/02 01:11:09;;;;;;;31.05;14.88;;;;;;;0.28;84.84;96624.91;4893593;29;20064;-72
2021/03/02 01:13:36;;;;;;;28.75;14.98;;;;;;;-0.14;87.14;96633.31;4876278;29;20063;-72
2021/03/02 01:16:03;;;;;;;28.65;15.13;;;;;;;0.00;86.98;96622.00;4893062;29;20115;-73
2021/03/02 01:18:29;;;;;;;31.15;16.20;;;;;;;0.07;86.54;96609.50;4892030;29;20464;-72
2021/03/02 01:20:56;;;;;;;27.10;15.52;;;;;;;0.35;86.05;96633.75;4860282;29;20048;-72
2021/03/02 01:23:22;;;;;;;22.17;12.93;;;;;;;0.24;86.14;96626.13;4893094;29;20123;-73
2021/03/02 01:25:49;;;;;;;23.45;13.68;;;;;;;-0.26;88.51;96618.91;4892802;29;20087;-73
2021/03/02 01:28:15;;;;;;;25.30;14.43;;;;;;;-0.15;88.52;96625.75;4893099;29;20051;-72
2021/03/02 01:30:42;;;;;;;24.80;14.98;;;;;;;-0.03;88.20;96606.88;4892873;29;20049;-72
2021/03/02 01:33:09;;;;;;;25.90;15.13;;;;;;;0.23;87.47;96609.09;4892728;29;20048;-72
2021/03/02 01:35:36;;;;;;;22.85;13.02;;;;;;;0.26;86.62;96596.03;4893014;29;20503;-72
2021/03/02 01:38:04;;;;;;;24.20;14.63;;;;;;;0.25;87.02;96594.41;4892830;29;20071;-73
2021/03/02 01:40:31;;;;;;;28.95;15.43;;;;;;;0.45;86.46;96608.19;4892540;29;20064;-73
2021/03/02 01:42:57;;;;;;;28.73;15.80;;;;;;;0.51;85.55;96607.69;4875633;29;20190;-73
2021/03/02 01:45:24;;;;;;;27.80;16.13;;;;;;;0.46;85.57;96604.69;4892860;29;20041;-73
2021/03/02 01:47:52;;;;;;;24.83;14.38;;;;;;;0.56;85.48;96610.72;4875197;29;20507;-73
2021/03/02 01:50:21;;;;;;;24.42;13.77;;;;;;;0.18;86.84;96605.16;4891441;29;20069;-73
2021/03/02 01:52:48;;;;;;;25.38;14.75;;;;;;;-0.01;88.19;96607.56;4891575;29;20105;-73
2021/03/02 01:55:16;;;;;;;25.17;14.25;;;;;;;0.23;87.76;96598.84;4891657;29;20085;-72
2021/03/02 01:57:43;;;;;;;28.48;16.92;;;;;;;-0.09;88.32;96604.78;4892392;29;20055;-73
2021/03/02 02:00:13;;;;;;;28.67;15.38;;;;;;;-0.05;88.70;96601.06;4875440;29;20591;-73
2021/03/02 02:03:28;;;;;;;25.42;14.95;;;;;;;-0.17;89.56;96612.25;4874531;29;20172;-72
2021/03/02 02:06:12;;;;;;;25.45;14.80;;;;;;;-0.52;91.01;96592.75;4886475;29;20080;-72
2021/03/02 02:08:45;;;;;;;;;;;;;;;-0.53;91.40;96598.81;4892707;29;20052;-72
2021/03/02 02:11:22;;;;;;;21.23;11.60;;;;;;;-0.60;91.09;96575.44;4892349;29;20026;-72
2021/03/02 02:14:07;;;;;;;21.77;11.98;;;;;;;-0.44;90.97;96590.44;4873821;29;20076;-72
2021/03/02 02:16:36;;;;;;;27.10;14.07;;;;;;;-0.11;90.44;96597.22;4892049;29;20096;-72
2021/03/02 02:19:09;;;;;;;21.58;12.77;;;;;;;-0.02;89.55;96605.91;4874289;29;20139;-72
2021/03/02 02:22:00;;;;;;;24.00;13.65;;;;;;;0.13;89.28;96593.66;4891160;29;20044;-72
2021/03/02 02:24:32;;;;;;;22.80;12.60;;;;;;;0.36;88.27;96599.47;4890904;29;20685;-72
2021/03/02 02:27:00;;;;;;;35.30;19.15;;;;;;;0.45;87.15;96598.75;4892116;29;20041;-72
2021/03/02 02:29:31;;;;;;;25.33;13.77;;;;;;;0.45;86.49;96603.88;4891388;29;20047;-72
2021/03/02 02:31:59;;;;;;;33.42;17.10;;;;;;;0.44;86.59;96606.56;4891405;29;20049;-73
2021/03/02 02:34:27;;;;;;;23.48;13.43;;;;;;;0.55;85.68;96606.50;4873595;29;20144;-73
2021/03/02 02:36:57;;;;;;;23.70;11.32;;;;;;;0.55;85.23;96599.63;4891461;29;20122;-72
2021/03/02 02:39:24;;;;;;;23.75;11.95;;;;;;;0.72;84.05;96607.69;4891811;29;20058;-73
2021/03/02 02:41:52;;;;;;;37.17;17.30;;;;;;;0.65;83.40;96593.72;4891967;29;20135;-72
2021/03/02 02:44:21;;;;;;;39.33;20.00;;;;;;;0.75;83.36;96610.00;4891441;29;20075;-73
2021/03/02 02:46:50;;;;;;;40.97;18.00;;;;;;;0.74;82.95;96603.25;4890238;29;20040;-72
2021/03/02 02:49:18;;;;;;;33.88;17.92;;;;;;;0.77;83.01;96608.13;4891387;29;20056;-72
2021/03/02 02:51:45;;;;;;;36.58;19.50;;;;;;;0.74;82.95;96608.41;4891333;29;20040;-72
2021/03/02 02:54:12;;;;;;;32.42;17.52;;;;;;;0.72;82.91;96620.50;4873759;29;20544;-73
2021/03/02 02:56:44;;;;;;;24.52;13.43;;;;;;;0.72;82.68;96639.28;4891281;29;20041;-72
2021/03/02 02:59:22;;;;;;;41.78;16.67;;;;;;;0.38;82.94;96607.88;4891402;29;20061;-73
2021/03/02 03:01:54;;;;;;;31.65;15.02;;;;;;;0.43;83.32;96610.06;4891202;29;20396;-73
2021/03/02 03:04:24;;;;;;;41.65;18.10;;;;;;;0.34;83.36;96591.09;4874343;29;20099;-72
2021/03/02 03:06:56;;;;;;;30.55;15.45;;;;;;;0.53;82.91;96627.13;4874174;29;20059;-73
2021/03/02 03:09:23;;;;;;;28.35;13.90;;;;;;;0.44;82.90;96622.75;4891033;29;20082;-72
2021/03/02 03:11:57;;;;;;;26.58;15.00;;;;;;;0.44;82.77;96614.25;4891457;29;20117;-72
2021/03/02 03:15:12;;;;;;;29.80;14.07;;;;;;;0.45;82.44;96629.53;4891001;29;20052;-73
2021/03/02 03:17:58;;;;;;;22.75;13.48;;;;;;;0.38;82.30;96610.44;4874237;29;20430;-73
2021/03/02 03:20:28;;;;;;;32.75;17.70;;;;;;;0.37;82.47;96612.16;4890374;29;20041;-73
2021/03/02 03:22:56;;;;;;;34.60;20.35;;;;;;;0.24;82.74;96605.63;4889773;29;20127;-73
2021/03/02 03:25:22;;;;;;;40.92;19.85;;;;;;;0.33;82.43;96620.25;4890942;29;20563;-73
2021/03/02 03:27:56;;;;;;;41.17;20.75;;;;;;;0.33;82.16;96620.25;4890897;29;20047;-72
2021/03/02 03:30:25;;;;;;;35.00;19.02;;;;;;;0.16;83.15;96624.97;4890763;29;20040;-72
2021/03/02 03:32:59;;;;;;;39.15;20.48;;;;;;;-0.43;85.55;96607.44;4890794;29;20056;-72
2021/03/02 03:35:26;;;;;;;36.88;18.30;;;;;;;-0.78;86.81;96613.47;4890906;29;22034;-71
2021/03/02 03:37:53;;;;;;;39.60;19.75;;;;;;;-0.89;88.24;96628.84;4889698;29;20398;-73
2021/03/02 03:40:20;;;;;;;38.40;19.50;;;;;;;-0.82;88.19;96627.44;4873479;29;20044;-73
2021/03/02 03:42:47;;;;;;;46.60;24.92;;;;;;;-0.74;87.33;96617.44;4870927;29;20452;-73
2021/03/02 03:45:14;;;;;;;44.97;23.33;;;;;;;-0.83;87.40;96628.38;4874014;29;20542;-72
2021/03/02 03:47:41;;;;;;;42.50;19.25;;;;;;;-0.73;87.32;96642.09;4890679;29;20120;-73
2021/03/02 03:50:08;;;;;;;36.85;20.13;;;;;;;-0.70;86.66;96641.88;4890410;29;20052;-72
2021/03/02 03:52:39;;;;;;;57.67;25.05;;;;;;;-0.70;86.24;96644.44;4890937;29;20045;-72
2021/03/02 03:55:08;;;;;;;36.45;19.20;;;;;;;-0.70;85.51;96641.88;4890694;29;20799;-72
2021/03/02 03:57:38;;;;;;;34.65;18.60;;;;;;;-0.76;85.01;96632.09;4890385;29;20036;-72
2021/03/02 04:00:06;;;;;;;42.78;22.05;;;;;;;-0.81;85.55;96645.25;4890208;29;20049;-73
2021/03/02 04:02:34;;;;;;;65.78;37.92;;;;;;;-1.15;87.07;96641.84;4890055;29;20123;-73
2021/03/02 04:05:03;;;;;;;54.92;28.48;;;;;;;-1.50;89.01;96637.53;4873165;29;20040;-72
2021/03/02 04:07:29;;;;;;;48.15;22.58;;;;;;;-1.33;87.95;96635.50;4890273;29;20033;-72
2021/03/02 04:09:57;;;;;;;73.32;34.33;;;;;;;-1.52;88.47;96643.69;4873172;29;20069;-72
2021/03/02 04:12:23;;;;;;;61.60;30.52;;;;;;;-1.60;89.76;96646.81;4872999;29;20052;-72
2021/03/02 04:14:50;;;;;;;69.53;32.83;;;;;;;-1.55;89.45;96634.50;4890019;29;20116;-72
2021/03/02 04:17:17;;;;;;;106.53;55.78;;;;;;;-1.65;90.91;96664.22;4872904;29;20062;-72
2021/03/02 04:19:43;;;;;;;108.63;60.55;;;;;;;-1.62;90.65;96646.09;4888792;29;20851;-72
2021/03/02 04:22:09;;;;;;;50.30;25.40;;;;;;;-1.71;90.83;96659.53;4889954;29;20044;-72
2021/03/02 04:24:36;;;;;;;67.60;30.17;;;;;;;-1.58;90.82;96650.06;4888953;29;20534;-72
2021/03/02 04:27:02;;;;;;;55.30;29.00;;;;;;;-1.43;90.20;96653.25;4890286;29;20051;-72
2021/03/02 04:29:29;;;;;;;49.13;23.92;;;;;;;-1.52;89.10;96647.06;4872793;29;20067;-72
2021/03/02 04:31:55;;;;;;;91.82;39.75;;;;;;;-1.46;89.28;96659.41;4873187;29;20044;-72
2021/03/02 04:34:21;;;;;;;164.68;67.75;;;;;;;-1.32;87.87;96670.38;4889863;29;20135;-73
2021/03/02 04:36:48;;;;;;;185.32;67.85;;;;;;;-1.40;87.03;96653.84;4889521;29;20045;-72
2021/03/02 04:39:15;;;;;;;126.50;53.30;;;;;;;-1.37;85.85;96656.19;4889509;29;20041;-72
2021/03/02 04:41:41;;;;;;;57.35;22.65;;;;;;;-1.34;84.44;96665.38;4890438;29;20574;-73
2021/03/02 04:44:07;;;;;;;40.90;19.50;;;;;;;-1.40;83.85;96661.50;4890278;29;20047;-73
2021/03/02 04:46:34;;;;;;;32.17;16.80;;;;;;;-1.51;83.72;96661.50;4890012;29;20049;-73
2021/03/02 04:49:01;;;;;;;55.70;25.35;;;;;;;-1.53;83.35;96663.34;4872995;29;20045;-73
2021/03/02 04:51:27;;;;;;;37.67;20.63;;;;;;;-1.56;83.42;96668.66;4889763;29;20426;-73
2021/03/02 04:53:53;;;;;;;39.63;18.88;;;;;;;-1.52;83.33;96675.19;4889753;29;20076;-73
2021/03/02 04:56:21;;;;;;;36.92;18.17;;;;;;;-1.54;83.17;96677.84;4889800;29;20037;-73
2021/03/02 04:58:47;;;;;;;42.08;22.48;;;;;;;-1.56;83.07;96679.69;4872796;29;20052;-72
2021/03/02 05:01:13;;;;;;;34.33;19.23;;;;;;;-1.59;83.31;96663.75;4889631;29;20048;-73
2021/03/02 05:03:41;;;;;;;49.33;29.15;;;;;;;-1.68;83.80;96659.31;4890267;29;20446;-72
2021/03/02 05:06:08;;;;;;;40.15;23.15;;;;;;;-1.71;83.97;96647.59;4888836;29;20060;-73
2021/03/02 05:08:34;;;;;;;36.60;19.33;;;;;;;-1.74;83.76;96656.28;4889836;29;20161;-74
2021/03/02 05:11:01;;;;;;;39.15;21.55;;;;;;;-1.66;84.03;96662.56;4888703;29;20132;-73
2021/03/02 05:13:27;;;;;;;51.17;32.05;;;;;;;-1.68;84.13;96664.44;4888541;29;20041;-72
2021/03/02 05:16:10;;;;;;;82.65;33.80;;;;;;;-1.74;83.81;96653.72;4889564;29;20040;-74
2021/03/02 05:18:38;;;;;;;78.15;34.45;;;;;;;-1.81;84.86;96665.28;4888755;29;20040;-72
2021/03/02 05:21:04;;;;;;;51.90;25.15;;;;;;;-1.76;84.86;96663.25;4888409;29;20124;-73
2021/03/02 05:23:31;;;;;;;53.72;25.30;;;;;;;-1.79;85.64;96658.34;4889361;29;20036;-73
2021/03/02 05:25:57;;;;;;;48.28;24.00;;;;;;;-1.84;85.66;96649.38;4889330;29;20119;-73
2021/03/02 05:28:24;;;;;;;55.70;30.83;;;;;;;-1.72;85.63;96666.38;4886837;29;20078;-73
2021/03/02 05:30:52;;;;;;;44.78;24.73;;;;;;;-1.68;85.42;96664.44;4889862;29;20050;-73
2021/03/02 05:33:18;;;;;;;45.00;23.30;;;;;;;-1.61;85.28;96673.28;4891860;29;20051;-73
2021/03/02 05:35:45;;;;;;;69.15;35.42;;;;;;;-1.57;85.12;96672.13;4892883;29;20503;-73
2021/03/02 05:38:11;;;;;;;54.85;29.88;;;;;;;-1.55;85.03;96676.22;4892806;29;20049;-73
2021/03/02 05:40:39;;;;;;;41.00;25.50;;;;;;;-1.49;85.14;96674.97;4875780;29;20040;-73
2021/03/02 05:43:07;;;;;;;40.10;21.83;;;;;;;-1.51;85.38;96681.94;4891294;29;20111;-74
2021/03/02 05:45:34;;;;;;;33.35;19.35;;;;;;;-1.48;85.17;96676.56;4892740;29;20127;-72
2021/03/02 05:48:04;;;;;;;36.78;20.73;;;;;;;-1.38;85.33;96681.84;4892544;29;20071;-73
2021/03/02 05:50:32;;;;;;;45.63;22.55;;;;;;;-1.67;89.63;96687.31;4875800;29;20601;-73
2021/03/02 05:53:01;;;;;;;51.45;25.90;;;;;;;-1.60;89.02;96682.59;4892388;29;20070;-74
2021/03/02 05:55:28;;;;;;;41.72;22.20;;;;;;;-1.49;88.32;96684.38;4875126;29;20101;-72
2021/03/02 05:57:56;;;;;;;66.47;33.00;;;;;;;-1.47;89.36;96697.88;4892476;29;20430;-72
2021/03/02 06:00:23;;;;;;;60.20;26.65;;;;;;;-1.55;89.81;96681.34;4892187;29;20072;-74
2021/03/02 06:02:50;;;;;;;58.00;27.85;;;;;;;-1.44;90.13;96683.13;4891975;29;20044;-72
2021/03/02 06:05:17;;;;;;;58.55;30.83;;;;;;;-1.25;89.62;96681.78;4892538;29;20135;-72
2021/03/02 06:07:44;;;;;;;60.63;32.70;;;;;;;-1.18;89.43;96672.72;4874844;29;20054;-73
2021/03/02 06:10:11;;;;;;;64.93;30.17;;;;;;;-1.00;89.16;96691.84;4891017;29;20048;-73
2021/03/02 06:12:55;;;;;;;63.55;33.95;;;;;;;-0.82;89.38;96699.09;4891053;29;20040;-72
2021/03/02 06:15:23;;;;;;;148.73;64.43;;;;;;;-0.80;90.62;96697.22;4875076;29;20547;-72
2021/03/02 06:18:11;;;;;;;73.50;36.38;;;;;;;-0.76;91.14;96703.72;4859495;29;20515;-73
2021/03/02 06:20:40;;;;;;;47.30;21.60;;;;;;;-0.87;90.03;96701.97;4873510;29;20047;-73
2021/03/02 06:23:21;;;;;;;76.55;38.22;;;;;;;-0.99;90.05;96701.16;4891661;29;20068;-73
2021/03/02 06:25:48;;;;;;;87.50;41.70;;;;;;;-0.92;89.94;96705.78;4874528;29;20135;-74
2021/03/02 06:28:39;;;;;;;87.40;42.38;;;;;;;-0.91;90.10;96704.88;4891473;29;20073;-73
2021/03/02 06:31:07;;;;;;;89.15;29.10;;;;;;;-1.05;90.49;96693.91;4891162;29;20045;-73
2021/03/02 06:33:34;;;;;;;43.13;22.25;;;;;;;-1.06;90.26;96682.06;4874474;29;20048;-73
2021/03/02 06:36:00;;;;;;;60.40;31.08;;;;;;;-0.91;90.55;96708.25;4890007;29;20040;-73
2021/03/02 06:38:34;;;;;;;31.45;18.30;;;;;;;-0.81;90.05;96710.94;4889910;29;20056;-73
2021/03/02 06:41:01;;;;;;;29.95;18.15;;;;;;;-0.68;90.01;96709.09;4890958;29;20052;-73
2021/03/02 06:43:40;;;;;;;32.70;17.65;;;;;;;-0.55;90.05;96715.88;4871948;29;20042;-73
2021/03/02 06:46:09;;;;;;;31.73;17.40;;;;;;;-0.39;90.72;96711.22;4890547;29;20048;-74
2021/03/02 06:48:59;;;;;;;32.10;14.77;;;;;;;-0.24;89.71;96720.28;4890816;29;20059;-74
2021/03/02 06:51:27;;;;;;;26.25;14.73;;;;;;;-0.13;89.88;96716.09;4890981;29;20045;-73
2021/03/02 06:54:02;;;;;;;28.42;16.60;;;;;;;-0.02;89.85;96718.63;4892148;29;20043;-74
2021/03/02 06:56:29;;;;;;;34.30;14.38;;;;;;;0.11;89.77;96714.19;4890951;29;20052;-73
2021/03/02 06:59:10;;;;;;;32.67;15.30;;;;;;;0.27;89.40;96711.25;4890557;29;20052;-73
2021/03/02 07:01:38;;;;;;;31.80;18.05;;;;;;;0.35;89.10;96705.53;4874558;29;20100;-73
2021/03/02 07:04:14;;;;;;;44.25;23.63;;;;;;;0.35;88.77;96697.84;4891109;29;20040;-74
2021/03/02 07:06:42;;;;;;;43.05;24.70;;;;;;;0.54;88.64;96705.69;4890661;29;20044;-73
2021/03/02 07:09:16;;;;;;;98.53;41.03;;;;;;;0.72;88.40;96700.00;4891166;29;20076;-74
2021/03/02 07:11:42;;;;;;;66.18;29.88;;;;;;;0.84;87.46;96696.47;4874077;29;20059;-73
2021/03/02 07:14:11;;;;;;;34.20;17.63;;;;;;;0.88;86.31;96685.03;4891158;29;20041;-71
2021/03/02 07:16:43;;;;;;;33.33;17.55;;;;;;;1.08;85.71;96703.09;4891256;29;20049;-71
2021/03/02 07:19:16;;;;;;;42.53;24.23;;;;;;;1.17;85.62;96681.84;4872888;29;20044;-72
2021/03/02 07:21:46;;;;;;;50.35;27.20;;;;;;;1.38;84.01;96694.63;4886586;29;20131;-72
2021/03/02 07:24:14;;;;;;;36.83;20.88;;;;;;;1.47;83.00;96688.72;4874315;29;20442;-72
2021/03/02 07:26:46;;;;;;;34.67;19.73;;;;;;;1.56;83.32;96687.13;4874263;29;20076;-71
2021/03/02 07:29:13;;;;;;;35.63;20.95;;;;;;;1.83;83.12;96696.84;4889124;29;20131;-71
2021/03/02 07:31:42;;;;;;;32.08;19.70;;;;;;;1.90;81.31;96679.94;4873672;29;20048;-71
2021/03/02 07:34:11;;;;;;;39.50;23.20;;;;;;;2.06;81.18;96694.88;4874029;29;20055;-71
2021/03/02 07:36:41;;;;;;;46.92;23.85;;;;;;;2.02;82.21;96672.97;4890848;29;20072;-71
2021/03/02 07:39:17;;;;;;;57.97;32.30;;;;;;;2.25;81.61;96693.28;4890818;29;20040;-71
2021/03/02 07:41:45;;;;;;;45.42;25.13;;;;;;;2.43;80.58;96691.69;4873279;29;20048;-71
2021/03/02 07:44:12;;;;;;;39.95;22.52;;;;;;;2.56;78.85;96690.63;4890574;29;20056;-71
2021/03/02 07:46:41;;;;;;;34.70;20.50;;;;;;;2.57;78.06;96694.81;4872683;29;20574;-72
2021/03/02 07:49:28;;;;;;;39.95;22.30;;;;;;;2.64;78.95;96698.47;4889565;29;20551;-72
2021/03/02 07:52:00;;;;;;;42.60;20.88;;;;;;;2.80;76.89;96683.28;4889156;29;20044;-73
2021/03/02 07:54:29;;;;;;;38.78;23.33;;;;;;;2.93;76.96;96674.47;4871439;29;20483;-71
2021/03/02 07:57:14;;;;;;;31.77;19.08;;;;;;;3.03;76.59;96688.16;4872905;29;21777;-72
2021/03/02 07:59:45;;;;;;;32.58;19.15;;;;;;;3.12;76.72;96682.19;4889986;29;20123;-72
2021/03/02 08:02:16;;;;;;;;;;;;;;;3.24;76.66;96681.06;4889335;29;20140;-70
2021/03/02 08:04:55;;;;;;;41.95;20.00;;;;;;;3.47;75.95;96675.56;4890248;29;19942;-72
2021/03/02 08:07:27;;;;;;;36.80;19.95;;;;;;;3.52;74.09;96678.53;4888874;29;20045;-70
2021/03/02 08:09:58;;;;;;;33.42;19.52;;;;;;;3.58;74.00;96678.00;4889531;29;20040;-71
2021/03/02 08:12:30;;;;;;;38.35;19.65;;;;;;;3.50;73.77;96672.72;4889706;29;20522;-71
2021/03/02 08:15:00;;;;;;;34.00;17.88;;;;;;;3.59;74.49;96676.22;4890157;29;20044;-73
2021/03/02 08:17:27;;;;;;;35.78;20.25;;;;;;;3.69;74.27;96674.41;4872662;29;20051;-73
2021/03/02 08:20:06;;;;;;;35.30;20.10;;;;;;;3.72;74.87;96663.00;4889295;29;20052;-74
2021/03/02 08:22:34;;;;;;;31.77;19.92;;;;;;;3.84;73.40;96677.31;4889016;29;20044;-73
2021/03/02 08:25:04;;;;;;;31.58;18.95;;;;;;;3.80;73.70;96657.97;4889153;29;20088;-74
2021/03/02 08:28:05;;;;;;;27.75;17.50;;;;;;;4.05;73.65;96673.69;4889734;29;20294;-73
2021/03/02 08:30:37;;;;;;;31.73;16.42;;;;;;;4.15;71.25;96651.22;4889269;29;20148;-73
2021/03/02 08:33:10;;;;;;;30.23;16.52;;;;;;;4.40;69.63;96658.25;4889848;29;20044;-74
2021/03/02 08:35:40;;;;;;;26.10;16.25;;;;;;;4.46;68.64;96651.69;4873426;29;20060;-73
2021/03/02 08:38:10;;;;;;;27.45;15.27;;;;;;;4.62;67.59;96652.78;4889939;29;20032;-73
2021/03/02 08:40:37;;;;;;;22.85;13.45;;;;;;;4.66;67.05;96649.75;4890179;29;20795;-74
2021/03/02 08:43:06;;;;;;;28.48;14.82;;;;;;;4.78;65.82;96645.97;4889724;29;20059;-72
2021/03/02 08:45:40;;;;;;;32.67;18.77;;;;;;;4.82;68.26;96648.28;4889871;29;20085;-73
2021/03/02 08:48:14;;;;;;;33.92;19.75;;;;;;;4.92;68.98;96651.59;4889428;29;20040;-72
2021/03/02 08:50:42;;;;;;;36.22;18.33;;;;;;;5.02;68.27;96636.78;4889416;29;20554;-72
2021/03/02 08:53:34;;;;;;;29.58;15.90;;;;;;;5.19;66.05;96652.41;4889064;29;20052;-73
2021/03/02 08:56:04;;;;;;;31.38;15.93;;;;;;;5.09;66.32;96648.13;4872807;29;20046;-73
2021/03/02 08:58:34;;;;;;;35.88;17.38;;;;;;;5.29;67.04;96642.75;4873003;29;20485;-73
2021/03/02 09:01:06;;;;;;;32.03;18.55;;;;;;;5.40;66.05;96639.91;4890068;29;20059;-73
2021/03/02 09:03:33;;;;;;;30.60;17.17;;;;;;;5.51;65.10;96631.91;4889756;29;20426;-74
2021/03/02 09:06:28;;;;;;;28.27;16.80;;;;;;;5.81;64.54;96647.84;4891724;29;20044;-73
2021/03/02 09:08:57;;;;;;;31.98;15.52;;;;;;;5.92;62.29;96639.81;4876452;29;20040;-74
2021/03/02 09:11:31;;;;;;;31.20;17.73;;;;;;;5.93;63.43;96631.09;4891737;29;20051;-73
2021/03/02 09:13:59;;;;;;;;;;;;;;;6.10;61.12;96633.75;4893281;29;20036;-73
2021/03/02 09:16:35;;;;;;;35.20;16.63;;;;;;;6.19;61.26;96619.84;4874989;29;19928;-73
2021/03/02 09:19:07;;;;;;;32.30;16.23;;;;;;;6.40;60.77;96636.72;4890895;29;20430;-74
2021/03/02 09:21:35;;;;;;;29.75;16.45;;;;;;;6.57;60.45;96622.81;4891534;29;20797;-74
2021/03/02 09:24:03;;;;;;;24.10;14.35;;;;;;;6.69;59.99;96621.50;4875028;29;20499;-73
2021/03/02 09:26:30;;;;;;;15.50;10.52;;;;;;;6.75;55.98;96624.41;4892395;29;20052;-73
2021/03/02 09:29:01;;;;;;;20.17;11.23;;;;;;;6.89;55.97;96627.16;4874774;29;20642;-74
2021/03/02 09:31:29;;;;;;;14.77;8.95;;;;;;;7.10;55.25;96622.47;4892598;29;20048;-74
2021/03/02 09:33:57;;;;;;;19.38;9.98;;;;;;;7.02;54.49;96605.13;4893140;29;20128;-74
2021/03/02 09:36:27;;;;;;;12.00;7.60;;;;;;;6.99;52.61;96619.22;4892745;29;20041;-74
2021/03/02 09:38:56;;;;;;;17.92;8.70;;;;;;;7.16;52.99;96621.78;4892039;29;20049;-74
2021/03/02 09:41:39;;;;;;;16.50;7.50;;;;;;;7.34;51.09;96614.59;4892787;29;20425;-74
2021/03/02 09:44:25;;;;;;;12.40;6.78;;;;;;;7.82;50.77;96618.00;4874912;29;20523;-74
2021/03/02 09:46:54;;;;;;;11.27;7.20;;;;;;;8.06;49.88;96607.66;4892118;29;20106;-73
2021/03/02 09:49:31;;;;;;;11.67;8.10;;;;;;;8.21;49.84;96606.75;4875448;29;20048;-74
2021/03/02 09:51:58;;;;;;;13.95;8.90;;;;;;;8.24;49.41;96585.63;4892286;29;20840;-73
2021/03/02 09:54:24;;;;;;;12.48;7.80;;;;;;;8.63;47.61;96603.91;4892535;29;20037;-75
2021/03/02 09:57:02;;;;;;;12.40;8.00;;;;;;;8.66;47.53;96593.16;4892527;29;20097;-74
2021/03/02 09:59:29;;;;;;;14.45;8.88;;;;;;;9.12;47.41;96603.47;4891476;29;20108;-73
2021/03/02 10:01:56;;;;;;;15.77;8.98;;;;;;;9.60;45.56;96606.53;4892256;29;20036;-74
2021/03/02 10:04:23;;;;;;;18.15;10.43;;;;;;;9.68;44.70;96609.00;4875415;29;20070;-72
2021/03/02 10:06:50;;;;;;;14.43;8.38;;;;;;;9.83;43.80;96595.16;4892754;29;20039;-72
2021/03/02 10:09:25;;;;;;;13.90;8.05;;;;;;;9.81;43.93;96589.34;4875461;29;20047;-73
2021/03/02 10:12:12;;;;;;;12.23;7.00;;;;;;;10.09;43.44;96595.47;4875582;29;20289;-72
2021/03/02 10:14:43;;;;;;;11.98;8.27;;;;;;;10.40;42.38;96591.78;4875803;29;20080;-74
2021/03/02 10:17:10;;;;;;;12.57;8.35;;;;;;;10.49;42.22;96590.66;4884854;29;20044;-74
2021/03/02 10:19:45;;;;;;;17.83;7.70;;;;;;;10.48;42.04;96577.84;4875163;29;20135;-74
2021/03/02 10:22:13;;;;;;;12.50;8.68;;;;;;;10.87;41.62;96561.69;4891793;29;20051;-74
2021/03/02 10:24:42;;;;;;;17.27;9.07;;;;;;;11.52;40.59;96564.06;4891782;29;20123;-72
2021/03/02 10:27:12;;;;;;;16.65;8.23;;;;;;;11.56;39.51;96560.09;4892238;29;20054;-72
2021/03/02 10:29:39;;;;;;;16.20;9.00;;;;;;;11.60;39.22;96566.53;4874637;29;20058;-72
2021/03/02 10:32:06;;;;;;;14.20;9.10;;;;;;;11.39;39.82;96564.03;4891562;29;20419;-74
2021/03/02 10:34:36;;;;;;;14.90;9.02;;;;;;;11.70;38.75;96558.31;4874984;29;20044;-74
2021/03/02 10:37:07;;;;;;;15.68;10.27;;;;;;;12.17;37.88;96550.66;4859250;29;20049;-72
2021/03/02 10:39:34;;;;;;;16.27;10.32;;;;;;;12.27;38.03;96556.31;4891754;29;20051;-74
2021/03/02 10:42:02;;;;;;;21.85;9.82;;;;;;;12.19;37.87;96532.97;4891707;29;20120;-74
2021/03/02 10:44:29;;;;;;;16.10;10.48;;;;;;;12.46;37.11;96554.72;4874424;29;20044;-72
2021/03/02 10:46:55;;;;;;;21.33;10.40;;;;;;;12.70;36.21;96540.25;4874744;29;20060;-72
2021/03/02 10:49:22;;;;;;;20.88;10.80;;;;;;;12.73;35.88;96529.41;4874680;29;20052;-72
2021/03/02 10:51:52;;;;;;;16.70;10.70;;;;;;;12.81;36.37;96534.41;4874614;29;20057;-72
2021/03/02 10:54:19;;;;;;;13.02;8.88;;;;;;;12.99;35.81;96527.75;4891565;29;20140;-72
2021/03/02 10:56:45;;;;;;;14.43;8.95;;;;;;;12.93;35.08;96518.91;4891649;29;20043;-72
2021/03/02 10:59:11;;;;;;;14.45;7.57;;;;;;;13.05;35.08;96521.69;4872801;29;20052;-73
2021/03/02 11:01:38;;;;;;;10.70;6.85;;;;;;;12.81;34.72;96510.88;4890313;29;20519;-73
2021/03/02 11:04:08;;;;;;;18.90;8.32;;;;;;;12.78;34.84;96500.84;4886860;29;20056;-74
2021/03/02 11:06:34;;;;;;;13.63;8.63;;;;;;;13.09;35.47;96496.75;4890085;29;20071;-74
2021/03/02 11:09:02;;;;;;;12.90;8.35;;;;;;;13.48;33.92;96508.09;4888381;29;20486;-74
2021/03/02 11:11:29;;;;;;;11.30;7.43;;;;;;;13.51;33.86;96505.06;4888551;29;20064;-72
2021/03/02 11:13:55;;;;;;;10.20;7.00;;;;;;;13.92;33.47;96490.75;4887318;29;20061;-73
2021/03/02 11:16:22;;;;;;;10.20;7.13;;;;;;;14.10;32.90;96482.19;4888728;29;20040;-72
2021/03/02 11:18:52;;;;;;;16.08;7.28;;;;;;;14.34;31.96;96485.81;4872375;29;20099;-71
2021/03/02 11:21:19;;;;;;;10.38;7.28;;;;;;;14.14;31.70;96482.56;4889070;29;20047;-72
2021/03/02 11:23:45;;;;;;;14.27;7.90;;;;;;;13.87;32.59;96477.50;4887357;29;20116;-72
2021/03/02 11:26:12;;;;;;;13.13;6.63;;;;;;;14.19;31.85;96479.28;4886861;29;20040;-72
2021/03/02 11:28:38;;;;;;;13.10;7.00;;;;;;;14.62;31.19;96457.59;4888610;29;20522;-72
2021/03/02 11:31:05;;;;;;;10.45;6.85;;;;;;;14.83;30.48;96453.75;4888253;29;20127;-72
2021/03/02 11:33:31;;;;;;;11.00;7.28;;;;;;;14.55;31.00;96462.88;4888486;29;20132;-72
2021/03/02 11:35:58;;;;;;;11.00;6.55;;;;;;;14.52;30.68;96464.09;4887873;29;20040;-72
2021/03/02 11:38:25;;;;;;;11.30;7.78;;;;;;;14.14;32.13;96466.84;4871691;29;20056;-71